Time;durP1;ratioP1;P1;durP2;ratioP2;P2;SDS_P1;SDS_P2;PMS_P1;PMS_P2;Temp;Humidity;BMP_temperature;BMP_pressure;BME280_temperature;BME280_humidity;BME280_pressure;Samples;Min_cycle;Max_cycle;Signal;HPM_P1;HPM_P2
2022/12/13 00:00:17;;;;;;;;;;;-6.40;99.90;;;;;;5065086;28;20204;-69
2022/12/13 00:02:44;;;;;;;;;;;-6.40;99.90;;;;;;5066516;28;19921;-69
2022/12/13 00:05:10;;;;;;;;;;;-6.40;99.90;;;;;;5066288;28;19960;-69
2022/12/13 00:07:37;;;;;;;;;;;-6.40;99.90;;;;;;5065715;28;19920;-69
2022/12/13 00:10:06;;;;;;;;;;;-6.40;99.90;;;;;;5066250;28;20183;-69
2022/12/13 00:12:33;;;;;;;;;;;-6.50;99.90;;;;;;5066235;28;19975;-69
2022/12/13 00:14:59;;;;;;;;;;;-6.50;99.90;;;;;;5066068;28;19920;-69
2022/12/13 00:17:26;;;;;;;;;;;-6.60;99.90;;;;;;5065403;28;19924;-70
2022/12/13 00:19:53;;;;;;;;;;;-6.60;99.90;;;;;;5066123;28;20163;-69
2022/12/13 00:22:19;;;;;;;;;;;-6.50;99.90;;;;;;5066002;28;19984;-70
2022/12/13 00:24:46;;;;;;;;;;;-6.50;99.90;;;;;;5065775;28;19956;-69
2022/12/13 00:27:28;;;;;;;;;;;-6.50;99.90;;;;;;5063087;28;19956;-69
2022/12/13 00:29:55;;;;;;;;;;;-6.50;99.90;;;;;;5065773;28;19991;-70
2022/12/13 00:32:21;;;;;;;;;;;-6.40;99.90;;;;;;5065557;28;20288;-71
2022/12/13 00:34:48;;;;;;;;;;;-6.40;99.90;;;;;;5065993;28;19984;-69
2022/12/13 00:37:40;;;;;;;;;;;-6.40;99.90;;;;;;5063370;28;19980;-69
2022/12/13 00:40:32;;;;;;;;;;;-6.40;99.90;;;;;;5063124;28;20247;-69
2022/12/13 00:43:00;;;;;;;;;;;-6.30;99.90;;;;;;5045721;28;20173;-69
2022/12/13 00:45:27;;;;;;;;;;;-6.30;99.90;;;;;;5045853;28;19975;-68
2022/12/13 00:47:54;;;;;;;;;;;-6.30;99.90;;;;;;5045238;28;19936;-68
2022/12/13 00:50:21;;;;;;;;;;;-6.30;99.90;;;;;;5045729;28;19953;-70
2022/12/13 00:52:48;;;;;;;;;;;-6.30;99.90;;;;;;5045599;28;19964;-68
2022/12/13 00:55:14;;;;;;;;;;;-6.30;99.90;;;;;;5048972;28;19969;-72
2022/12/13 00:57:41;;;;;;;;;;;-6.30;99.90;;;;;;5048338;28;19921;-69
2022/12/13 01:00:10;;;;;;;;;;;-6.30;99.90;;;;;;5048557;28;19960;-69
2022/12/13 01:02:37;;;;;;;;;;;-6.40;99.90;;;;;;5048897;28;19921;-69
2022/12/13 01:05:04;;;;;;;;;;;-6.30;99.90;;;;;;5053099;28;19963;-69
2022/12/13 01:07:31;;;;;;;;;;;-6.30;99.90;;;;;;5068184;28;19921;-69
2022/12/13 01:09:58;;;;;;;;;;;-6.30;99.90;;;;;;5067912;28;19920;-69
2022/12/13 01:12:24;;;;;;;;;;;-6.30;99.90;;;;;;5065560;28;20201;-69
2022/12/13 01:14:51;;;;;;;;;;;-6.30;99.90;;;;;;5064820;28;19956;-69
2022/12/13 01:17:19;;;;;;;;;;;-6.30;99.90;;;;;;5064277;28;19983;-71
2022/12/13 01:19:46;;;;;;;;;;;-6.30;99.90;;;;;;5064816;28;19920;-69
2022/12/13 01:22:13;;;;;;;;;;;-6.20;99.90;;;;;;5064809;28;19992;-69
2022/12/13 01:24:40;;;;;;;;;;;-6.20;99.90;;;;;;5064708;28;19952;-69
2022/12/13 01:27:06;;;;;;;;;;;-6.30;99.90;;;;;;5064189;28;19921;-69
2022/12/13 01:29:33;;;;;;;;;;;-6.30;99.90;;;;;;5064402;28;19959;-69
2022/12/13 01:32:00;;;;;;;;;;;-6.30;99.90;;;;;;5064780;28;19971;-69
2022/12/13 01:34:28;;;;;;;;;;;-6.30;99.90;;;;;;5064839;28;19921;-69
2022/12/13 01:36:55;;;;;;;;;;;-6.40;99.90;;;;;;5065626;28;19991;-68
2022/12/13 01:39:22;;;;;;;;;;;-6.40;99.90;;;;;;5064598;28;20330;-69
2022/12/13 01:41:49;;;;;;;;;;;-6.40;99.90;;;;;;5064682;28;19921;-69
2022/12/13 01:44:35;;;;;;;;;;;-6.30;99.90;;;;;;5064300;28;19920;-69
2022/12/13 01:47:01;;;;;;;;;;;-6.40;99.90;;;;;;5063934;28;19960;-69
2022/12/13 01:49:29;;;;;;;;;;;-6.50;99.90;;;;;;5064558;28;19921;-69
2022/12/13 01:51:59;;;;;;;;;;;-6.50;99.90;;;;;;5064404;28;19921;-70
2022/12/13 01:54:30;;;;;;;;;;;-6.60;99.90;;;;;;5064525;28;19958;-71
2022/12/13 01:56:57;;;;;;;;;;;-6.60;99.90;;;;;;5063691;28;19960;-68
2022/12/13 01:59:25;;;;;;;;;;;-6.60;99.90;;;;;;5064188;28;19940;-70
2022/12/13 02:01:52;;;;;;;;;;;-6.60;99.90;;;;;;5064227;28;19921;-69
2022/12/13 02:04:22;;;;;;;;;;;-6.60;99.90;;;;;;5064221;28;19959;-69
2022/12/13 02:06:50;;;;;;;;;;;-6.60;99.90;;;;;;5063287;28;20228;-69
2022/12/13 02:09:17;;;;;;;;;;;-6.50;99.90;;;;;;5064095;28;20168;-69
2022/12/13 02:11:44;;;;;;;;;;;-6.50;99.90;;;;;;5064045;28;20180;-69
2022/12/13 02:14:11;;;;;;;;;;;-6.50;99.90;;;;;;5064566;28;19948;-69
2022/12/13 02:16:44;;;;;;;;;;;-6.50;99.90;;;;;;5063529;28;19943;-68
2022/12/13 02:19:26;;;;;;;;;;;-6.50;99.90;;;;;;5063947;28;19991;-69
2022/12/13 02:22:00;;;;;;;;;;;-6.50;99.90;;;;;;5063934;28;19987;-69
2022/12/13 02:24:50;;;;;;;;;;;-6.40;99.90;;;;;;5062879;28;19920;-69
2022/12/13 02:27:30;;;;;;;;;;;-6.50;99.90;;;;;;5047819;28;19955;-69
2022/12/13 02:30:19;;;;;;;;;;;-6.50;99.90;;;;;;5063719;28;19943;-70
2022/12/13 02:33:09;;;;;;;;;;;-6.50;99.90;;;;;;5063812;28;19928;-69
2022/12/13 02:35:39;;;;;;;;;;;-6.60;99.90;;;;;;5063583;28;20193;-69
2022/12/13 02:38:32;;;;;;;;;;;-6.70;99.90;;;;;;5061773;28;19952;-69
2022/12/13 02:41:04;;;;;;;;;;;-6.80;99.90;;;;;;5063633;28;20239;-69
2022/12/13 02:43:35;;;;;;;;;;;-6.90;99.90;;;;;;5063500;28;20411;-69
2022/12/13 02:46:02;;;;;;;;;;;-7.00;99.90;;;;;;5062945;28;19960;-69
2022/12/13 02:48:32;;;;;;;;;;;-7.10;99.90;;;;;;5063513;28;19952;-69
2022/12/13 02:51:00;;;;;;;;;;;-7.10;99.90;;;;;;5063506;28;19992;-69
2022/12/13 02:53:27;;;;;;;;;;;-7.20;99.90;;;;;;5063403;28;19988;-68
2022/12/13 02:55:54;;;;;;;;;;;-7.20;99.90;;;;;;5063210;28;19984;-68
2022/12/13 02:58:25;;;;;;;;;;;-7.20;99.90;;;;;;5062521;28;20132;-69
2022/12/13 03:00:56;;;;;;;;;;;-7.20;99.90;;;;;;5063243;28;19951;-69
2022/12/13 03:03:26;;;;;;;;;;;-7.30;99.90;;;;;;5063250;28;19973;-69
2022/12/13 03:08:45;;;;;;;;;;;-7.20;99.90;;;;;;5063235;28;19978;-69
2022/12/13 03:11:13;;;;;;;;;;;-7.20;99.90;;;;;;5063418;28;19963;-68
2022/12/13 03:13:43;;;;;;;;;;;-7.20;99.90;;;;;;5063270;28;19943;-68
2022/12/13 03:16:18;;;;;;;;;;;-7.20;99.90;;;;;;5062767;28;20113;-69
2022/12/13 03:18:45;;;;;;;;;;;-7.20;99.90;;;;;;5063276;28;19957;-70
2022/12/13 03:21:13;;;;;;;;;;;-7.30;99.90;;;;;;5063383;28;20000;-69
2022/12/13 03:23:40;;;;;;;;;;;-7.50;99.90;;;;;;5063117;28;19952;-68
2022/12/13 03:26:09;;;;;;;;;;;-7.60;99.90;;;;;;5062253;28;19963;-70
2022/12/13 03:28:35;;;;;;;;;;;-7.60;99.90;;;;;;5063389;28;19963;-69
2022/12/13 03:31:02;;;;;;;;;;;-7.70;99.90;;;;;;5062852;28;19992;-69
2022/12/13 03:33:29;;;;;;;;;;;-7.70;99.90;;;;;;5063123;28;19979;-69
2022/12/13 03:35:56;;;;;;;;;;;-7.80;99.90;;;;;;5065676;28;19964;-69
2022/12/13 03:38:28;;;;;;;;;;;-7.90;99.90;;;;;;5064514;28;19952;-70
2022/12/13 03:40:56;;;;;;;;;;;-7.90;99.90;;;;;;5065199;28;19949;-69
2022/12/13 03:43:23;;;;;;;;;;;-7.90;99.90;;;;;;5066538;28;20243;-69
2022/12/13 03:45:50;;;;;;;;;;;-7.90;99.90;;;;;;5066150;28;19921;-68
2022/12/13 03:48:17;;;;;;;;;;;-7.90;99.90;;;;;;5066291;28;19971;-68
2022/12/13 03:50:43;;;;;;;;;;;-7.90;99.90;;;;;;5066829;28;19952;-69
2022/12/13 03:53:10;;;;;;;;;;;-7.80;99.90;;;;;;5066446;28;20259;-68
2022/12/13 03:55:38;;;;;;;;;;;-7.80;99.90;;;;;;5066487;28;19952;-68
2022/12/13 03:58:05;;;;;;;;;;;-7.80;99.90;;;;;;5066310;28;19955;-68
2022/12/13 04:00:31;;;;;;;;;;;-7.90;99.90;;;;;;5066679;28;20000;-69
2022/12/13 04:02:58;;;;;;;;;;;-7.90;99.90;;;;;;5066736;28;19948;-69
2022/12/13 04:05:24;;;;;;;;;;;-7.90;99.90;;;;;;5066449;28;19921;-69
2022/12/13 04:07:51;;;;;;;;;;;-7.90;99.90;;;;;;5065820;28;19959;-68
2022/12/13 04:10:18;;;;;;;;;;;-7.90;99.90;;;;;;5066205;28;19948;-70
2022/12/13 04:15:30;;;;;;;;;;;-7.80;99.90;;;;;;5066067;28;20115;-70
2022/12/13 04:17:56;;;;;;;;;;;-7.70;99.90;;;;;;5065243;28;20231;-69
2022/12/13 04:20:23;;;;;;;;;;;-7.70;99.90;;;;;;5045930;28;19997;-69
2022/12/13 04:22:50;;;;;;;;;;;-7.70;99.90;;;;;;5046240;28;19993;-69
2022/12/13 04:25:18;;;;;;;;;;;-7.70;99.90;;;;;;5045687;28;19957;-69
2022/12/13 04:27:46;;;;;;;;;;;-7.70;99.90;;;;;;5045555;28;19921;-70
2022/12/13 04:30:13;;;;;;;;;;;-7.80;99.90;;;;;;5046029;28;19957;-69
2022/12/13 04:32:39;;;;;;;;;;;-7.90;99.90;;;;;;5045672;28;20186;-69
2022/12/13 04:35:06;;;;;;;;;;;-7.90;99.90;;;;;;5045850;28;19988;-68
2022/12/13 04:37:45;;;;;;;;;;;-8.00;99.90;;;;;;5043407;28;19993;-69
2022/12/13 04:40:32;;;;;;;;;;;-8.10;99.90;;;;;;5043341;28;19995;-69
2022/12/13 04:43:00;;;;;;;;;;;-8.10;99.90;;;;;;5045579;28;19988;-68
2022/12/13 04:45:26;;;;;;;;;;;-8.20;99.90;;;;;;5045412;28;19987;-69
2022/12/13 04:47:53;;;;;;;;;;;-8.20;99.90;;;;;;5044628;28;19953;-70
2022/12/13 04:50:20;;;;;;;;;;;-8.20;99.90;;;;;;5045671;28;19921;-69
2022/12/13 04:52:46;;;;;;;;;;;-8.10;99.90;;;;;;5045581;28;19952;-68
2022/12/13 04:55:13;;;;;;;;;;;-8.10;99.90;;;;;;5045423;28;19960;-69
2022/12/13 04:57:40;;;;;;;;;;;-8.20;99.90;;;;;;5045016;28;19921;-69
2022/12/13 05:00:12;;;;;;;;;;;-8.30;99.90;;;;;;5045489;28;19921;-69
2022/12/13 05:02:40;;;;;;;;;;;-8.30;99.90;;;;;;5045434;28;19984;-68
2022/12/13 05:05:07;;;;;;;;;;;-8.30;99.90;;;;;;5045373;28;19921;-69
2022/12/13 05:07:34;;;;;;;;;;;-8.30;99.90;;;;;;5053103;28;19988;-69
2022/12/13 05:10:00;;;;;;;;;;;-8.30;99.90;;;;;;5064880;28;19980;-69
2022/12/13 05:12:27;;;;;;;;;;;-8.30;99.90;;;;;;5065132;28;19964;-69
2022/12/13 05:14:54;;;;;;;;;;;-8.30;99.90;;;;;;5064929;28;19984;-70
2022/12/13 05:17:22;;;;;;;;;;;-8.30;99.90;;;;;;5064225;28;19920;-69
2022/12/13 05:19:48;;;;;;;;;;;-8.30;99.90;;;;;;5064897;28;19952;-69
2022/12/13 05:22:15;;;;;;;;;;;-8.30;99.90;;;;;;5064639;28;20231;-69
2022/12/13 05:24:43;;;;;;;;;;;-8.30;99.90;;;;;;5064468;28;19927;-69
2022/12/13 05:27:10;;;;;;;;;;;-8.30;99.90;;;;;;5063893;28;19921;-69
2022/12/13 05:29:37;;;;;;;;;;;-8.30;99.90;;;;;;5064482;28;19952;-69
2022/12/13 05:32:04;;;;;;;;;;;-8.30;99.90;;;;;;5064658;28;19921;-69
2022/12/13 05:34:32;;;;;;;;;;;-8.30;99.90;;;;;;5064101;28;19960;-68
2022/12/13 05:37:00;;;;;;;;;;;-8.40;99.90;;;;;;5060513;28;20223;-68
2022/12/13 05:39:27;;;;;;;;;;;-8.40;99.90;;;;;;5063928;28;20200;-69
2022/12/13 05:41:54;;;;;;;;;;;-8.30;99.90;;;;;;5064296;28;19995;-69
2022/12/13 05:44:21;;;;;;;;;;;-8.30;99.90;;;;;;5044346;28;19921;-68
2022/12/13 05:46:48;;;;;;;;;;;-8.30;99.90;;;;;;5043586;28;19960;-68
2022/12/13 05:49:14;;;;;;;;;;;-8.30;99.90;;;;;;5053030;28;19987;-69
2022/12/13 05:51:42;;;;;;;;;;;-8.30;99.90;;;;;;5064189;28;19952;-70
2022/12/13 05:54:09;;;;;;;;;;;-8.30;99.90;;;;;;5064052;28;19960;-69
2022/12/13 05:56:36;;;;;;;;;;;-8.30;99.90;;;;;;5063438;28;19931;-69
2022/12/13 05:59:03;;;;;;;;;;;-8.30;99.90;;;;;;5063517;28;19921;-68
2022/12/13 06:01:29;;;;;;;;;;;-8.30;99.90;;;;;;5063826;28;19991;-68
2022/12/13 06:03:56;;;;;;;;;;;-8.30;99.90;;;;;;5063595;28;20231;-68
2022/12/13 06:06:22;;;;;;;;;;;-8.30;99.90;;;;;;5063336;28;19956;-68
2022/12/13 06:08:50;;;;;;;;;;;-8.30;99.90;;;;;;5063809;28;19959;-68
2022/12/13 06:11:17;;;;;;;;;;;-8.30;99.90;;;;;;5062158;28;19952;-68
2022/12/13 06:13:44;;;;;;;;;;;-8.30;99.90;;;;;;5063879;28;19956;-68
2022/12/13 06:16:12;;;;;;;;;;;-8.30;99.90;;;;;;5053477;28;19921;-68
2022/12/13 06:18:38;;;;;;;;;;;-8.30;99.90;;;;;;5052767;28;19920;-68
2022/12/13 06:21:06;;;;;;;;;;;-8.40;99.90;;;;;;5062807;28;19956;-70
2022/12/13 06:23:33;;;;;;;;;;;-8.40;99.90;;;;;;5060625;28;19967;-68
2022/12/13 06:26:03;;;;;;;;;;;-8.50;99.90;;;;;;5062833;28;19927;-69
2022/12/13 06:28:30;;;;;;;;;;;-8.60;99.90;;;;;;5063778;28;19983;-72
2022/12/13 06:30:59;;;;;;;;;;;-8.60;99.90;;;;;;5063348;28;19921;-67
2022/12/13 06:33:25;;;;;;;;;;;-8.60;99.90;;;;;;5063565;28;19984;-68
2022/12/13 06:35:55;;;;;;;;;;;-8.60;99.90;;;;;;5062947;28;19963;-68
2022/12/13 06:38:24;;;;;;;;;;;-8.60;99.90;;;;;;5061444;28;19952;-68
2022/12/13 06:40:51;;;;;;;;;;;-8.60;99.90;;;;;;5063773;28;19921;-68
2022/12/13 06:43:19;;;;;;;;;;;-8.50;99.90;;;;;;5063738;28;19983;-68
2022/12/13 06:45:46;;;;;;;;;;;-8.50;99.90;;;;;;5063183;28;19983;-69
2022/12/13 06:48:14;;;;;;;;;;;-8.50;99.90;;;;;;5062063;28;19933;-68
2022/12/13 06:50:40;;;;;;;;;;;-8.50;99.90;;;;;;5063403;28;19956;-69
2022/12/13 06:53:07;;;;;;;;;;;-8.60;99.90;;;;;;5063544;28;19991;-69
2022/12/13 06:55:34;;;;;;;;;;;-8.60;99.90;;;;;;5063555;28;19985;-69
2022/12/13 06:58:09;;;;;;;;;;;-8.60;99.90;;;;;;5060159;28;20256;-68
2022/12/13 07:00:37;;;;;;;;;;;-8.60;99.90;;;;;;5063736;28;19991;-69
2022/12/13 07:03:03;;;;;;;;;;;-8.60;99.90;;;;;;5063144;28;19988;-68
2022/12/13 07:05:30;;;;;;;;;;;-8.60;99.90;;;;;;5063557;28;19951;-69
2022/12/13 07:07:57;;;;;;;;;;;-8.70;99.90;;;;;;5062535;28;20125;-68
2022/12/13 07:10:23;;;;;;;;;;;-8.70;99.90;;;;;;5065849;28;20014;-68
2022/12/13 07:12:50;;;;;;;;;;;-8.70;99.90;;;;;;5067184;28;19951;-68
2022/12/13 07:15:17;;;;;;;;;;;-8.70;99.90;;;;;;5067296;28;19952;-68
2022/12/13 07:17:49;;;;;;;;;;;-8.60;99.90;;;;;;5066767;28;19989;-68
2022/12/13 07:20:15;;;;;;;;;;;-8.60;99.90;;;;;;5067327;28;19921;-69
2022/12/13 07:22:42;;;;;;;;;;;-8.60;99.90;;;;;;5062627;28;19997;-69
2022/12/13 07:25:09;;;;;;;;;;;-8.60;99.90;;;;;;5053178;28;19972;-68
2022/12/13 07:27:35;;;;;;;;;;;-8.60;99.90;;;;;;5060366;28;19921;-68
2022/12/13 07:30:02;;;;;;;;;;;-8.60;99.90;;;;;;5047452;28;20213;-69
2022/12/13 07:32:29;;;;;;;;;;;-8.60;99.90;;;;;;5049662;28;19989;-69
2022/12/13 07:34:57;;;;;;;;;;;-8.60;99.90;;;;;;5046728;28;20000;-69
2022/12/13 07:37:23;;;;;;;;;;;-8.60;99.90;;;;;;5052885;28;19963;-69
2022/12/13 07:39:50;;;;;;;;;;;-8.60;99.90;;;;;;5049309;28;19941;-68
2022/12/13 07:42:17;;;;;;;;;;;-8.60;99.90;;;;;;5046834;28;19952;-68
2022/12/13 07:44:43;;;;;;;;;;;-8.60;99.90;;;;;;5065028;28;19952;-69
2022/12/13 07:47:10;;;;;;;;;;;-8.60;99.90;;;;;;5057240;28;20184;-68
2022/12/13 07:49:39;;;;;;;;;;;-8.60;99.90;;;;;;5047932;28;19928;-68
2022/12/13 07:52:10;;;;;;;;;;;-8.50;99.90;;;;;;5059886;28;19921;-70
2022/12/13 07:54:36;;;;;;;;;;;-8.50;99.90;;;;;;5065548;28;19921;-70
2022/12/13 07:57:03;;;;;;;;;;;-8.40;99.90;;;;;;5055993;28;19944;-68
2022/12/13 07:59:42;;;;;;;;;;;-8.40;99.90;;;;;;5051543;28;19948;-69
2022/12/13 08:02:09;;;;;;;;;;;-8.40;99.90;;;;;;5066377;28;19921;-69
2022/12/13 08:04:36;;;;;;;;;;;-8.40;99.90;;;;;;5047788;28;19980;-68
2022/12/13 08:07:06;;;;;;;;;;;-8.30;99.90;;;;;;5053330;28;19984;-69
2022/12/13 08:09:34;;;;;;;;;;;-8.30;99.90;;;;;;5050973;28;20232;-69
2022/12/13 08:12:00;;;;;;;;;;;-8.30;99.90;;;;;;5046428;28;20160;-68
2022/12/13 08:14:27;;;;;;;;;;;-8.40;99.90;;;;;;5054563;28;20006;-68
2022/12/13 08:16:53;;;;;;;;;;;-8.30;99.90;;;;;;5045408;28;19952;-69
2022/12/13 08:19:20;;;;;;;;;;;-8.30;99.90;;;;;;5054141;28;19987;-69
2022/12/13 08:21:47;;;;;;;;;;;-8.20;99.90;;;;;;5045216;28;20225;-69
2022/12/13 08:24:13;;;;;;;;;;;-8.10;99.90;;;;;;5050972;28;20128;-68
2022/12/13 08:26:41;;;;;;;;;;;-8.00;99.90;;;;;;5064983;28;20235;-68
2022/12/13 08:29:08;;;;;;;;;;;-7.90;99.90;;;;;;5065387;28;19952;-70
2022/12/13 08:31:35;;;;;;;;;;;-7.80;99.90;;;;;;5061571;28;20153;-69
2022/12/13 08:34:01;;;;;;;;;;;-7.80;99.90;;;;;;5065499;28;19951;-70
2022/12/13 08:36:28;;;;;;;;;;;-7.70;99.90;;;;;;5059633;28;20232;-69
2022/12/13 08:38:55;;;;;;;;;;;-7.60;99.90;;;;;;5065645;28;19956;-69
2022/12/13 08:41:22;;;;;;;;;;;-7.60;99.90;;;;;;5055615;28;20157;-69
2022/12/13 08:43:50;;;;;;;;;;;-7.40;99.90;;;;;;5056963;28;20144;-68
2022/12/13 08:46:17;;;;;;;;;;;-7.40;99.90;;;;;;5059828;28;19952;-68
2022/12/13 08:48:44;;;;;;;;;;;-7.30;99.90;;;;;;5064708;28;19967;-69
2022/12/13 08:51:11;;;;;;;;;;;-7.30;99.90;;;;;;5064656;28;19952;-69
2022/12/13 08:53:38;;;;;;;;;;;-7.20;99.90;;;;;;5065389;28;19921;-69
2022/12/13 08:56:08;;;;;;;;;;;-7.20;99.90;;;;;;5052583;28;20011;-68
2022/12/13 08:58:35;;;;;;;;;;;-7.20;99.90;;;;;;5057162;28;19984;-69
2022/12/13 09:01:04;;;;;;;;;;;-7.10;99.90;;;;;;5054514;28;19952;-68
2022/12/13 09:03:31;;;;;;;;;;;-7.10;99.90;;;;;;5065658;28;19984;-68
2022/12/13 09:05:58;;;;;;;;;;;-7.10;99.90;;;;;;5053059;28;19972;-68
2022/12/13 09:08:24;;;;;;;;;;;-7.00;99.90;;;;;;5045184;28;19928;-68
2022/12/13 09:10:57;;;;;;;;;;;-7.00;99.90;;;;;;5048265;28;20180;-69
2022/12/13 09:13:24;;;;;;;;;;;-6.90;99.90;;;;;;5064820;28;19921;-68
2022/12/13 09:15:51;;;;;;;;;;;-6.80;99.90;;;;;;5060545;28;19921;-68
2022/12/13 09:18:19;;;;;;;;;;;-6.80;99.90;;;;;;5044746;28;19956;-68
2022/12/13 09:20:45;;;;;;;;;;;-6.70;99.90;;;;;;5049668;28;19979;-68
2022/12/13 09:23:12;;;;;;;;;;;-6.70;99.90;;;;;;5056205;28;19984;-68
2022/12/13 09:25:52;;;;;;;;;;;-6.60;99.90;;;;;;5060314;28;19975;-69
2022/12/13 09:28:19;;;;;;;;;;;-6.60;99.90;;;;;;5062012;28;19976;-68
2022/12/13 09:30:46;;;;;;;;;;;-6.50;99.90;;;;;;5051834;28;19952;-68
2022/12/13 09:33:12;;;;;;;;;;;-6.50;99.90;;;;;;5051168;28;20184;-68
2022/12/13 09:35:59;;;;;;;;;;;-6.30;99.90;;;;;;5060187;28;20101;-68
2022/12/13 09:38:25;;;;;;;;;;;-6.30;99.90;;;;;;5063892;28;19956;-69
2022/12/13 09:40:52;;;;;;;;;;;-6.30;99.90;;;;;;5049809;28;20240;-68
2022/12/13 09:43:21;;;;;;;;;;;-6.30;99.90;;;;;;5064583;28;19974;-68
2022/12/13 09:45:49;;;;;;;;;;;-6.20;99.90;;;;;;5063960;28;19928;-69
2022/12/13 09:48:17;;;;;;;;;;;-6.20;99.90;;;;;;5063853;28;19944;-68
2022/12/13 09:50:44;;;;;;;;;;;-6.20;99.90;;;;;;5064206;28;19984;-69
2022/12/13 09:53:14;;;;;;;;;;;-6.10;99.90;;;;;;5063903;28;20260;-69
2022/12/13 09:55:44;;;;;;;;;;;-6.00;99.90;;;;;;5062071;28;20207;-69
2022/12/13 09:58:13;;;;;;;;;;;-5.90;99.90;;;;;;5063587;28;19992;-68
2022/12/13 10:00:40;;;;;;;;;;;-5.90;99.90;;;;;;5064258;28;19980;-69
2022/12/13 10:03:12;;;;;;;;;;;-5.80;99.90;;;;;;5064337;28;20179;-68
2022/12/13 10:05:53;;;;;;;;;;;-5.80;99.90;;;;;;5061130;28;19940;-68
2022/12/13 10:08:23;;;;;;;;;;;-5.70;99.90;;;;;;5063764;28;20315;-67
2022/12/13 10:10:50;;;;;;;;;;;-5.60;99.90;;;;;;5063946;28;20101;-68
2022/12/13 10:13:18;;;;;;;;;;;-5.50;99.90;;;;;;5064090;28;19976;-68
2022/12/13 10:15:47;;;;;;;;;;;-5.40;99.90;;;;;;5063530;28;19928;-69
2022/12/13 10:18:17;;;;;;;;;;;-5.30;99.90;;;;;;5063113;28;19983;-67
2022/12/13 10:20:44;;;;;;;;;;;-5.20;99.90;;;;;;5064005;28;19991;-67
2022/12/13 10:23:11;;;;;;;;;;;-5.10;99.90;;;;;;5063730;28;19920;-68
2022/12/13 10:25:47;;;;;;;;;;;-5.00;99.90;;;;;;5044680;28;19921;-71
2022/12/13 10:28:15;;;;;;;;;;;-4.90;99.90;;;;;;5043516;28;19929;-67
2022/12/13 10:30:44;;;;;;;;;;;-4.70;99.90;;;;;;5049801;28;19956;-66
2022/12/13 10:33:20;;;;;;;;;;;-4.60;99.90;;;;;;5059979;28;19949;-68
2022/12/13 10:36:01;;;;;;;;;;;-4.30;99.90;;;;;;5061432;28;20001;-67
2022/12/13 10:38:29;;;;;;;;;;;-4.20;99.90;;;;;;5063460;28;19925;-67
2022/12/13 10:40:59;;;;;;;;;;;-4.00;99.90;;;;;;5060674;28;19971;-69
2022/12/13 10:43:26;;;;;;;;;;;-3.90;99.90;;;;;;5043993;28;19962;-69
2022/12/13 10:45:57;;;;;;;;;;;-3.70;99.90;;;;;;5049335;28;20205;-68
2022/12/13 10:48:25;;;;;;;;;;;-3.50;99.90;;;;;;5049805;28;19936;-68
2022/12/13 10:50:59;;;;;;;;;;;-3.30;99.90;;;;;;5061837;28;19992;-68
2022/12/13 10:53:29;;;;;;;;;;;-3.10;99.90;;;;;;5069715;28;20307;-68
2022/12/13 10:55:56;;;;;;;;;;;-2.90;99.90;;;;;;5069728;28;19928;-68
2022/12/13 10:58:33;;;;;;;;;;;-2.80;99.90;;;;;;5069757;28;19996;-68
2022/12/13 11:01:07;;;;;;;;;;;-2.70;99.90;;;;;;5070361;28;20178;-69
2022/12/13 11:03:34;;;;;;;;;;;-2.60;99.90;;;;;;5070593;28;19992;-69
2022/12/13 11:06:05;;;;;;;;;;;-2.50;99.90;;;;;;5069789;28;19924;-68
2022/12/13 11:08:39;;;;;;;;;;;-2.30;99.90;;;;;;5067979;28;19970;-68
2022/12/13 11:11:06;;;;;;;;;;;-2.20;99.90;;;;;;5070086;28;20231;-68
2022/12/13 11:13:37;;;;;;;;;;;-2.20;99.90;;;;;;5070433;28;19948;-68
2022/12/13 11:16:05;;;;;;;;;;;-2.10;99.90;;;;;;5069631;28;19974;-70
2022/12/13 11:18:34;;;;;;;;;;;-2.00;99.90;;;;;;5067808;28;20433;-68
2022/12/13 11:21:02;;;;;;;;;;;-1.90;99.90;;;;;;5069943;28;19955;-68
2022/12/13 11:23:31;;;;;;;;;;;-1.90;99.90;;;;;;5069941;28;20255;-68
2022/12/13 11:26:00;;;;;;;;;;;-2.00;99.90;;;;;;5069444;28;19966;-68
2022/12/13 11:28:43;;;;;;;;;;;-2.10;99.90;;;;;;5069892;28;20120;-68
2022/12/13 11:31:13;;;;;;;;;;;-2.10;99.90;;;;;;5069704;28;19943;-68
2022/12/13 11:33:44;;;;;;;;;;;-2.10;99.90;;;;;;5069714;28;19920;-68
2022/12/13 11:36:17;;;;;;;;;;;-2.00;99.90;;;;;;5068943;28;19967;-68
2022/12/13 11:38:52;;;;;;;;;;;-1.90;99.90;;;;;;5070092;28;19984;-68
2022/12/13 11:41:22;;;;;;;;;;;-1.70;99.90;;;;;;5069609;28;20286;-69
2022/12/13 11:43:52;;;;;;;;;;;-1.60;99.90;;;;;;5069971;28;19967;-69
2022/12/13 11:46:37;;;;;;;;;;;-1.60;99.90;;;;;;5065957;28;20187;-68
2022/12/13 11:49:06;;;;;;;;;;;-1.60;99.90;;;;;;5049847;28;19975;-68
2022/12/13 11:51:38;;;;;;;;;;;-1.60;99.90;;;;;;5050776;28;19921;-69
2022/12/13 11:54:09;;;;;;;;;;;-1.70;99.90;;;;;;5072230;28;19921;-70
2022/12/13 11:56:40;;;;;;;;;;;-1.90;99.90;;;;;;5067587;28;19928;-69
2022/12/13 11:59:14;;;;;;;;;;;-2.00;99.90;;;;;;5069224;28;19921;-71
2022/12/13 12:01:43;;;;;;;;;;;-2.00;99.90;;;;;;5067291;28;19930;-68
2022/12/13 12:04:14;;;;;;;;;;;-2.00;99.90;;;;;;5066456;28;19960;-67
2022/12/13 12:06:43;;;;;;;;;;;-1.80;99.90;;;;;;5062908;28;20284;-68
2022/12/13 12:09:13;;;;;;;;;;;-1.50;99.90;;;;;;5066493;28;19924;-67
2022/12/13 12:11:42;;;;;;;;;;;-1.30;99.90;;;;;;5066568;28;19963;-68
2022/12/13 12:14:12;;;;;;;;;;;-1.00;99.90;;;;;;5065726;28;19921;-68
2022/12/13 12:16:40;;;;;;;;;;;-0.80;99.90;;;;;;5065368;28;19920;-68
2022/12/13 12:19:11;;;;;;;;;;;-0.60;99.90;;;;;;5066001;28;19943;-68
2022/12/13 12:21:42;;;;;;;;;;;-0.50;99.90;;;;;;5066559;28;20008;-67
2022/12/13 12:24:12;;;;;;;;;;;-0.30;99.90;;;;;;5065999;28;19920;-68
2022/12/13 12:26:45;;;;;;;;;;;-0.30;99.90;;;;;;5063856;28;20010;-68
2022/12/13 12:29:30;;;;;;;;;;;-0.20;99.90;;;;;;5066058;28;19921;-68
2022/12/13 12:32:03;;;;;;;;;;;-0.10;99.90;;;;;;5052813;28;19928;-68
2022/12/13 12:34:36;;;;;;;;;;;0.10;99.90;;;;;;5057879;28;19947;-69
2022/12/13 12:37:09;;;;;;;;;;;0.10;99.90;;;;;;5047360;28;19929;-69
2022/12/13 12:39:54;;;;;;;;;;;0.30;99.90;;;;;;5065805;28;19955;-67
2022/12/13 12:42:34;;;;;;;;;;;0.40;99.90;;;;;;5065732;28;19948;-68
2022/12/13 12:45:06;;;;;;;;;;;0.50;99.90;;;;;;5065730;28;19927;-71
2022/12/13 12:47:40;;;;;;;;;;;0.50;99.90;;;;;;5065230;28;19921;-69
2022/12/13 12:50:18;;;;;;;;;;;0.70;99.90;;;;;;5061105;28;19997;-68
2022/12/13 12:52:50;;;;;;;;;;;0.70;99.90;;;;;;5058577;28;19954;-68
2022/12/13 12:55:19;;;;;;;;;;;0.70;99.90;;;;;;5065661;28;20014;-68
2022/12/13 12:57:49;;;;;;;;;;;0.80;99.90;;;;;;5065124;28;19956;-68
2022/12/13 13:00:17;;;;;;;;;;;0.90;99.90;;;;;;5065665;28;19979;-68
2022/12/13 13:02:51;;;;;;;;;;;0.90;99.90;;;;;;5065601;28;19983;-68
2022/12/13 13:05:25;;;;;;;;;;;0.80;99.90;;;;;;5063256;28;19964;-68
2022/12/13 13:07:55;;;;;;;;;;;0.70;99.90;;;;;;5064173;28;19942;-68
2022/12/13 13:10:22;;;;;;;;;;;0.60;99.90;;;;;;5065456;28;19970;-68
2022/12/13 13:12:49;;;;;;;;;;;0.40;99.90;;;;;;5064998;28;19920;-68
2022/12/13 13:15:49;;;;;;;;;;;0.30;99.90;;;;;;5065098;28;19999;-68
2022/12/13 13:18:34;;;;;;;;;;;0.10;99.90;;;;;;4983863;28;19957;-68
2022/12/13 13:21:15;;;;;;;;;;;-0.20;99.90;;;;;;4984001;28;20012;-67
2022/12/13 13:23:43;;;;;;;;;;;-0.40;99.90;;;;;;5036777;28;19983;-68
2022/12/13 13:26:10;;;;;;;;;;;-0.60;99.90;;;;;;5064451;28;19920;-69
2022/12/13 13:28:37;;;;;;;;;;;-0.80;99.90;;;;;;5062415;28;20216;-67
2022/12/13 13:31:18;;;;;;;;;;;-0.90;99.90;;;;;;5062400;28;19921;-68
2022/12/13 13:33:46;;;;;;;;;;;-1.00;99.90;;;;;;5064505;28;20228;-68
2022/12/13 13:36:27;;;;;;;;;;;-1.20;99.90;;;;;;5063651;28;19968;-67
2022/12/13 13:38:55;;;;;;;;;;;-1.30;99.90;;;;;;5045677;28;19984;-68
2022/12/13 13:41:43;;;;;;;;;;;-1.40;99.90;;;;;;5064824;28;19963;-67
2022/12/13 13:44:40;;;;;;;;;;;-1.50;99.90;;;;;;5041080;28;20183;-68
2022/12/13 13:47:10;;;;;;;;;;;-1.60;99.90;;;;;;4980960;28;19993;-69
2022/12/13 13:49:38;;;;;;;;;;;-1.60;99.90;;;;;;5034271;28;19952;-68
2022/12/13 13:52:17;;;;;;;;;;;-1.70;99.90;;;;;;5047619;28;19948;-69
2022/12/13 13:55:01;;;;;;;;;;;-1.80;99.90;;;;;;5063580;28;19960;-71
2022/12/13 13:57:38;;;;;;;;;;;-1.80;99.90;;;;;;5056657;28;19988;-70
2022/12/13 14:00:14;;;;;;;;;;;-1.90;99.90;;;;;;5058848;28;19958;-68
2022/12/13 14:02:58;;;;;;;;;;;-1.90;99.90;;;;;;5048785;28;19944;-68
2022/12/13 14:05:51;;;;;;;;;;;-2.00;99.90;;;;;;5051406;28;19952;-69
2022/12/13 14:08:23;;;;;;;;;;;-2.10;99.90;;;;;;5015960;28;19990;-69
2022/12/13 14:10:55;;;;;;;;;;;-2.10;99.90;;;;;;5064383;28;20097;-69
2022/12/13 14:13:48;;;;;;;;;;;-2.10;99.90;;;;;;5047459;28;19959;-68
2022/12/13 14:16:31;;;;;;;;;;;-2.20;99.90;;;;;;5043312;28;19957;-69
2022/12/13 14:19:19;;;;;;;;;;;-2.20;99.90;;;;;;5038294;28;19955;-69
2022/12/13 14:22:04;;;;;;;;;;;-2.20;99.90;;;;;;5063725;28;19956;-68
2022/12/13 14:24:36;;;;;;;;;;;-2.30;99.90;;;;;;5063543;28;19960;-68
2022/12/13 14:27:11;;;;;;;;;;;-2.30;99.90;;;;;;5062524;28;19928;-69
2022/12/13 14:29:40;;;;;;;;;;;-2.40;99.90;;;;;;5060076;28;19945;-68
2022/12/13 14:32:09;;;;;;;;;;;-2.40;99.90;;;;;;5059483;28;19927;-68
2022/12/13 14:34:36;;;;;;;;;;;-2.50;99.90;;;;;;5043698;28;19988;-68
2022/12/13 14:37:04;;;;;;;;;;;-2.50;99.90;;;;;;5060749;28;19963;-68
2022/12/13 14:39:33;;;;;;;;;;;-2.50;99.90;;;;;;5063143;28;19983;-69